sensor_id;sensor_type;location;lat;lon;timestamp;P1;durP1;ratioP1;P2;durP2;ratioP2
75516;SDS011;64097;52.548;13.406;2022-12-10T06:01:11;12.88;;;9.70;;
75516;SDS011;64097;52.548;13.406;2022-12-10T06:03:39;14.68;;;10.90;;
75516;SDS011;64097;52.548;13.406;2022-12-10T06:06:06;12.63;;;9.70;;
75516;SDS011;64097;52.548;13.406;2022-12-10T06:08:32;13.18;;;10.68;;
75516;SDS011;64097;52.548;13.406;2022-12-10T06:11:03;13.65;;;10.35;;
75516;SDS011;64097;52.548;13.406;2022-12-10T06:13:33;13.13;;;10.57;;
75516;SDS011;64097;52.548;13.406;2022-12-10T06:16:03;13.57;;;10.27;;
75516;SDS011;64097;52.548;13.406;2022-12-10T06:18:33;12.02;;;10.10;;
75516;SDS011;64097;52.548;13.406;2022-12-10T06:20:59;13.98;;;10.45;;
75516;SDS011;64097;52.548;13.406;2022-12-10T06:23:27;11.80;;;9.48;;
75516;SDS011;64097;52.548;13.406;2022-12-10T06:25:53;14.20;;;10.80;;
75516;SDS011;64097;52.548;13.406;2022-12-10T06:28:18;12.25;;;9.63;;
75516;SDS011;64097;52.548;13.406;2022-12-10T06:30:44;12.43;;;9.50;;
75516;SDS011;64097;52.548;13.406;2022-12-10T06:33:10;13.70;;;9.60;;
75516;SDS011;64097;52.548;13.406;2022-12-10T06:35:36;14.18;;;11.18;;
75516;SDS011;64097;52.548;13.406;2022-12-10T06:38:02;11.23;;;9.45;;
75516;SDS011;64097;52.548;13.406;2022-12-10T06:40:28;13.15;;;10.48;;
75516;SDS011;64097;52.548;13.406;2022-12-10T06:42:54;12.95;;;10.10;;
75516;SDS011;64097;52.548;13.406;2022-12-10T06:45:19;12.05;;;9.70;;
75516;SDS011;64097;52.548;13.406;2022-12-10T06:47:45;12.85;;;10.00;;
75516;SDS011;64097;52.548;13.406;2022-12-10T06:50:11;10.90;;;8.73;;
75516;SDS011;64097;52.548;13.406;2022-12-10T06:52:36;11.15;;;9.30;;
75516;SDS011;64097;52.548;13.406;2022-12-10T06:55:02;12.43;;;10.02;;
75516;SDS011;64097;52.548;13.406;2022-12-10T06:57:28;13.68;;;10.68;;
75516;SDS011;64097;52.548;13.406;2022-12-10T06:59:53;11.32;;;8.75;;
75516;SDS011;64097;52.548;13.406;2022-12-10T07:02:19;12.15;;;9.77;;
75516;SDS011;64097;52.548;13.406;2022-12-10T07:04:45;11.25;;;9.32;;
75516;SDS011;64097;52.548;13.406;2022-12-10T07:07:10;11.48;;;10.00;;
75516;SDS011;64097;52.548;13.406;2022-12-10T07:09:36;11.38;;;9.18;;
75516;SDS011;64097;52.548;13.406;2022-12-10T07:12:03;12.52;;;10.20;;
75516;SDS011;64097;52.548;13.406;2022-12-10T07:14:29;10.70;;;8.95;;
75516;SDS011;64097;52.548;13.406;2022-12-10T07:16:54;11.55;;;9.48;;
75516;SDS011;64097;52.548;13.406;2022-12-10T07:19:20;12.07;;;9.88;;
75516;SDS011;64097;52.548;13.406;2022-12-10T07:21:46;10.35;;;8.60;;
75516;SDS011;64097;52.548;13.406;2022-12-10T07:24:13;12.25;;;10.00;;
75516;SDS011;64097;52.548;13.406;2022-12-10T07:26:41;9.65;;;8.25;;
75516;SDS011;64097;52.548;13.406;2022-12-10T07:29:09;12.20;;;10.45;;
75516;SDS011;64097;52.548;13.406;2022-12-10T07:31:40;10.20;;;8.35;;
75516;SDS011;64097;52.548;13.406;2022-12-10T07:34:05;12.75;;;9.75;;
75516;SDS011;64097;52.548;13.406;2022-12-10T07:36:31;11.48;;;9.65;;
75516;SDS011;64097;52.548;13.406;2022-12-10T07:38:57;14.75;;;10.15;;
75516;SDS011;64097;52.548;13.406;2022-12-10T07:41:23;11.30;;;9.95;;
75516;SDS011;64097;52.548;13.406;2022-12-10T07:43:50;10.80;;;8.35;;
75516;SDS011;64097;52.548;13.406;2022-12-10T07:46:18;11.30;;;9.40;;
75516;SDS011;64097;52.548;13.406;2022-12-10T07:48:52;11.18;;;9.05;;
75516;SDS011;64097;52.548;13.406;2022-12-10T07:51:19;11.32;;;9.55;;
75516;SDS011;64097;52.548;13.406;2022-12-10T07:53:46;10.63;;;9.40;;
75516;SDS011;64097;52.548;13.406;2022-12-10T07:56:12;11.35;;;9.32;;
75516;SDS011;64097;52.548;13.406;2022-12-10T07:58:42;9.93;;;8.38;;
75516;SDS011;64097;52.548;13.406;2022-12-10T08:01:11;10.65;;;9.18;;
75516;SDS011;64097;52.548;13.406;2022-12-10T08:03:38;10.52;;;9.35;;
75516;SDS011;64097;52.548;13.406;2022-12-10T08:06:05;10.77;;;8.90;;
75516;SDS011;64097;52.548;13.406;2022-12-10T08:08:33;11.32;;;9.63;;
75516;SDS011;64097;52.548;13.406;2022-12-10T08:11:01;11.73;;;9.70;;
75516;SDS011;64097;52.548;13.406;2022-12-10T08:13:27;11.05;;;9.23;;
75516;SDS011;64097;52.548;13.406;2022-12-10T08:15:54;12.23;;;9.82;;
75516;SDS011;64097;52.548;13.406;2022-12-10T08:18:45;13.15;;;10.63;;
75516;SDS011;64097;52.548;13.406;2022-12-10T08:21:18;11.77;;;10.10;;
75516;SDS011;64097;52.548;13.406;2022-12-10T08:23:46;11.90;;;10.25;;
75516;SDS011;64097;52.548;13.406;2022-12-10T08:26:15;13.43;;;10.70;;
75516;SDS011;64097;52.548;13.406;2022-12-10T08:28:43;10.40;;;9.10;;
75516;SDS011;64097;52.548;13.406;2022-12-10T08:31:09;11.38;;;8.95;;
75516;SDS011;64097;52.548;13.406;2022-12-10T08:33:36;12.38;;;10.38;;
75516;SDS011;64097;52.548;13.406;2022-12-10T08:36:03;12.52;;;10.60;;
75516;SDS011;64097;52.548;13.406;2022-12-10T08:38:30;12.70;;;10.88;;
75516;SDS011;64097;52.548;13.406;2022-12-10T08:40:56;11.15;;;9.23;;
75516;SDS011;64097;52.548;13.406;2022-12-10T08:43:22;11.90;;;10.35;;
75516;SDS011;64097;52.548;13.406;2022-12-10T08:45:49;12.48;;;10.10;;
75516;SDS011;64097;52.548;13.406;2022-12-10T08:48:14;10.73;;;9.23;;
75516;SDS011;64097;52.548;13.406;2022-12-10T08:50:40;12.18;;;10.20;;
75516;SDS011;64097;52.548;13.406;2022-12-10T08:53:06;13.55;;;11.00;;
75516;SDS011;64097;52.548;13.406;2022-12-10T08:55:32;11.88;;;10.27;;
75516;SDS011;64097;52.548;13.406;2022-12-10T08:58:02;11.50;;;9.63;;
75516;SDS011;64097;52.548;13.406;2022-12-10T09:00:28;12.13;;;10.35;;
75516;SDS011;64097;52.548;13.406;2022-12-10T09:02:53;11.45;;;9.90;;
75516;SDS011;64097;52.548;13.406;2022-12-10T09:05:19;13.23;;;10.82;;
75516;SDS011;64097;52.548;13.406;2022-12-10T09:07:45;10.60;;;9.32;;
75516;SDS011;64097;52.548;13.406;2022-12-10T09:10:10;12.07;;;10.18;;
75516;SDS011;64097;52.548;13.406;2022-12-10T09:12:36;12.45;;;10.52;;
75516;SDS011;64097;52.548;13.406;2022-12-10T09:15:03;12.50;;;10.70;;
75516;SDS011;64097;52.548;13.406;2022-12-10T09:17:30;10.45;;;9.23;;
75516;SDS011;64097;52.548;13.406;2022-12-10T09:19:56;11.88;;;10.38;;
75516;SDS011;64097;52.548;13.406;2022-12-10T09:22:22;12.50;;;10.70;;
75516;SDS011;64097;52.548;13.406;2022-12-10T09:24:47;12.15;;;10.02;;
75516;SDS011;64097;52.548;13.406;2022-12-10T09:27:13;11.68;;;9.82;;
75516;SDS011;64097;52.548;13.406;2022-12-10T09:29:39;11.93;;;10.02;;
75516;SDS011;64097;52.548;13.406;2022-12-10T09:32:04;12.63;;;10.38;;
75516;SDS011;64097;52.548;13.406;2022-12-10T09:34:30;13.27;;;10.55;;
75516;SDS011;64097;52.548;13.406;2022-12-10T09:36:56;12.98;;;10.98;;
75516;SDS011;64097;52.548;13.406;2022-12-10T09:39:21;12.95;;;10.75;;
75516;SDS011;64097;52.548;13.406;2022-12-10T09:41:56;13.73;;;11.52;;
75516;SDS011;64097;52.548;13.406;2022-12-10T09:47:05;11.93;;;10.27;;
75516;SDS011;64097;52.548;13.406;2022-12-10T09:52:38;11.68;;;10.45;;
75516;SDS011;64097;52.548;13.406;2022-12-10T09:55:20;11.65;;;10.05;;
75516;SDS011;64097;52.548;13.406;2022-12-10T09:57:59;13.23;;;11.32;;
75516;SDS011;64097;52.548;13.406;2022-12-10T10:00:29;10.85;;;9.68;;
75516;SDS011;64097;52.548;13.406;2022-12-10T10:02:56;11.82;;;10.32;;
75516;SDS011;64097;52.548;13.406;2022-12-10T10:05:27;12.18;;;10.82;;
75516;SDS011;64097;52.548;13.406;2022-12-10T10:08:01;13.40;;;11.02;;
75516;SDS011;64097;52.548;13.406;2022-12-10T10:10:35;13.90;;;11.60;;
75516;SDS011;64097;52.548;13.406;2022-12-10T10:15:32;11.57;;;10.38;;
75516;SDS011;64097;52.548;13.406;2022-12-10T10:18:30;12.20;;;10.90;;
75516;SDS011;64097;52.548;13.406;2022-12-10T10:21:05;11.45;;;9.50;;
75516;SDS011;64097;52.548;13.406;2022-12-10T10:23:39;11.45;;;9.70;;
75516;SDS011;64097;52.548;13.406;2022-12-10T10:26:07;13.30;;;10.38;;
75516;SDS011;64097;52.548;13.406;2022-12-10T10:28:33;12.27;;;10.07;;
75516;SDS011;64097;52.548;13.406;2022-12-10T10:30:59;12.30;;;10.25;;
75516;SDS011;64097;52.548;13.406;2022-12-10T10:33:24;11.02;;;9.80;;
75516;SDS011;64097;52.548;13.406;2022-12-10T10:35:54;13.57;;;11.18;;
75516;SDS011;64097;52.548;13.406;2022-12-10T10:38:23;13.75;;;10.50;;
75516;SDS011;64097;52.548;13.406;2022-12-10T10:40:55;12.93;;;11.40;;
75516;SDS011;64097;52.548;13.406;2022-12-10T10:43:23;14.32;;;11.25;;
75516;SDS011;64097;52.548;13.406;2022-12-10T10:46:16;12.25;;;10.45;;
75516;SDS011;64097;52.548;13.406;2022-12-10T10:48:46;14.13;;;11.85;;
75516;SDS011;64097;52.548;13.406;2022-12-10T10:56:10;11.93;;;10.60;;
75516;SDS011;64097;52.548;13.406;2022-12-10T11:01:19;12.07;;;9.50;;
75516;SDS011;64097;52.548;13.406;2022-12-10T11:03:50;13.13;;;10.35;;
75516;SDS011;64097;52.548;13.406;2022-12-10T11:06:20;12.65;;;10.52;;
75516;SDS011;64097;52.548;13.406;2022-12-10T11:08:46;12.85;;;10.98;;
75516;SDS011;64097;52.548;13.406;2022-12-10T11:13:44;13.07;;;11.30;;
75516;SDS011;64097;52.548;13.406;2022-12-10T11:16:23;14.05;;;12.00;;
75516;SDS011;64097;52.548;13.406;2022-12-10T11:18:57;15.40;;;11.38;;
75516;SDS011;64097;52.548;13.406;2022-12-10T11:21:27;12.88;;;10.57;;
75516;SDS011;64097;52.548;13.406;2022-12-10T11:23:55;13.48;;;11.30;;
75516;SDS011;64097;52.548;13.406;2022-12-10T11:26:40;11.52;;;9.48;;
75516;SDS011;64097;52.548;13.406;2022-12-10T11:40:12;12.57;;;10.30;;
75516;SDS011;64097;52.548;13.406;2022-12-10T11:57:36;15.02;;;11.43;;
75516;SDS011;64097;52.548;13.406;2022-12-10T12:00:20;13.90;;;11.68;;
75516;SDS011;64097;52.548;13.406;2022-12-10T12:13:16;13.30;;;10.93;;
75516;SDS011;64097;52.548;13.406;2022-12-10T12:16:09;12.38;;;10.20;;
75516;SDS011;64097;52.548;13.406;2022-12-10T12:18:55;15.75;;;12.05;;
75516;SDS011;64097;52.548;13.406;2022-12-10T12:21:28;12.38;;;10.93;;
75516;SDS011;64097;52.548;13.406;2022-12-10T12:23:55;14.90;;;12.57;;
75516;SDS011;64097;52.548;13.406;2022-12-10T12:37:32;14.35;;;11.73;;
75516;SDS011;64097;52.548;13.406;2022-12-10T12:42:57;14.93;;;12.57;;
75516;SDS011;64097;52.548;13.406;2022-12-10T12:45:40;15.00;;;12.70;;
75516;SDS011;64097;52.548;13.406;2022-12-10T12:48:19;14.13;;;12.20;;
75516;SDS011;64097;52.548;13.406;2022-12-10T12:50:59;13.32;;;11.10;;
75516;SDS011;64097;52.548;13.406;2022-12-10T12:53:25;14.20;;;11.73;;
75516;SDS011;64097;52.548;13.406;2022-12-10T12:59:08;13.27;;;11.00;;
75516;SDS011;64097;52.548;13.406;2022-12-10T13:04:14;13.77;;;11.00;;
75516;SDS011;64097;52.548;13.406;2022-12-10T13:06:40;16.20;;;12.38;;
75516;SDS011;64097;52.548;13.406;2022-12-10T13:11:38;16.05;;;12.13;;
75516;SDS011;64097;52.548;13.406;2022-12-10T13:24:25;15.43;;;11.70;;
75516;SDS011;64097;52.548;13.406;2022-12-10T13:35:15;14.68;;;12.27;;
75516;SDS011;64097;52.548;13.406;2022-12-10T13:37:37;15.52;;;12.18;;
75516;SDS011;64097;52.548;13.406;2022-12-10T13:46:20;16.40;;;12.80;;
75516;SDS011;64097;52.548;13.406;2022-12-10T13:48:48;18.40;;;13.43;;
75516;SDS011;64097;52.548;13.406;2022-12-10T13:51:21;19.33;;;13.13;;
